sensor_id;sensor_type;location;lat;lon;timestamp;P1;durP1;ratioP1;P2;durP2;ratioP2
75890;SDS011;64571;47.512;19.054;2022-11-20T00:02:36;28.40;;;12.05;;
75890;SDS011;64571;47.512;19.054;2022-11-20T00:05:38;28.90;;;12.50;;
75890;SDS011;64571;47.512;19.054;2022-11-20T00:08:41;26.48;;;10.98;;
75890;SDS011;64571;47.512;19.054;2022-11-20T00:11:44;29.52;;;11.80;;
75890;SDS011;64571;47.512;19.054;2022-11-20T00:14:46;30.83;;;11.75;;
75890;SDS011;64571;47.512;19.054;2022-11-20T00:17:49;28.77;;;11.93;;
75890;SDS011;64571;47.512;19.054;2022-11-20T00:20:51;27.77;;;11.40;;
75890;SDS011;64571;47.512;19.054;2022-11-20T00:23:54;26.37;;;10.20;;
75890;SDS011;64571;47.512;19.054;2022-11-20T00:26:58;25.90;;;10.75;;
75890;SDS011;64571;47.512;19.054;2022-11-20T00:30:00;29.52;;;11.40;;
75890;SDS011;64571;47.512;19.054;2022-11-20T00:33:03;30.60;;;10.82;;
75890;SDS011;64571;47.512;19.054;2022-11-20T00:36:16;27.17;;;10.53;;
75890;SDS011;64571;47.512;19.054;2022-11-20T00:39:19;28.52;;;10.13;;
75890;SDS011;64571;47.512;19.054;2022-11-20T00:42:22;30.83;;;12.15;;
75890;SDS011;64571;47.512;19.054;2022-11-20T00:45:24;25.85;;;10.38;;
75890;SDS011;64571;47.512;19.054;2022-11-20T00:48:27;24.73;;;9.32;;
75890;SDS011;64571;47.512;19.054;2022-11-20T00:51:29;25.07;;;9.37;;
75890;SDS011;64571;47.512;19.054;2022-11-20T00:54:32;26.55;;;9.35;;
75890;SDS011;64571;47.512;19.054;2022-11-20T00:57:34;26.25;;;10.25;;
75890;SDS011;64571;47.512;19.054;2022-11-20T01:00:36;29.60;;;10.88;;
75890;SDS011;64571;47.512;19.054;2022-11-20T01:03:39;26.23;;;10.93;;
75890;SDS011;64571;47.512;19.054;2022-11-20T01:06:46;31.33;;;11.47;;
75890;SDS011;64571;47.512;19.054;2022-11-20T01:09:48;32.05;;;12.20;;
75890;SDS011;64571;47.512;19.054;2022-11-20T01:12:51;30.62;;;11.93;;
75890;SDS011;64571;47.512;19.054;2022-11-20T01:19:20;28.80;;;10.88;;
75890;SDS011;64571;47.512;19.054;2022-11-20T01:22:24;35.73;;;10.93;;
75890;SDS011;64571;47.512;19.054;2022-11-20T01:25:27;27.90;;;11.93;;
75890;SDS011;64571;47.512;19.054;2022-11-20T01:28:29;33.60;;;12.43;;
75890;SDS011;64571;47.512;19.054;2022-11-20T01:31:33;36.95;;;13.38;;
75890;SDS011;64571;47.512;19.054;2022-11-20T01:34:37;33.65;;;11.48;;
75890;SDS011;64571;47.512;19.054;2022-11-20T01:37:39;33.97;;;11.90;;
75890;SDS011;64571;47.512;19.054;2022-11-20T01:40:42;33.05;;;13.25;;
75890;SDS011;64571;47.512;19.054;2022-11-20T01:43:44;33.30;;;12.93;;
75890;SDS011;64571;47.512;19.054;2022-11-20T01:50:14;35.58;;;13.10;;
75890;SDS011;64571;47.512;19.054;2022-11-20T01:53:31;34.13;;;13.20;;
75890;SDS011;64571;47.512;19.054;2022-11-20T01:56:39;37.20;;;13.25;;
75890;SDS011;64571;47.512;19.054;2022-11-20T01:59:47;35.00;;;12.52;;
75890;SDS011;64571;47.512;19.054;2022-11-20T02:03:03;36.05;;;13.50;;
75890;SDS011;64571;47.512;19.054;2022-11-20T02:06:23;39.70;;;14.13;;
75890;SDS011;64571;47.512;19.054;2022-11-20T02:09:26;39.03;;;14.13;;
75890;SDS011;64571;47.512;19.054;2022-11-20T02:12:30;38.05;;;14.20;;
75890;SDS011;64571;47.512;19.054;2022-11-20T02:16:30;36.67;;;15.52;;
75890;SDS011;64571;47.512;19.054;2022-11-20T02:19:35;38.85;;;15.45;;
75890;SDS011;64571;47.512;19.054;2022-11-20T02:22:39;42.00;;;18.05;;
75890;SDS011;64571;47.512;19.054;2022-11-20T02:25:50;35.83;;;15.33;;
75890;SDS011;64571;47.512;19.054;2022-11-20T02:28:54;44.25;;;14.95;;
75890;SDS011;64571;47.512;19.054;2022-11-20T02:31:57;36.38;;;13.23;;
75890;SDS011;64571;47.512;19.054;2022-11-20T02:35:09;32.42;;;12.75;;
75890;SDS011;64571;47.512;19.054;2022-11-20T02:38:32;32.08;;;12.70;;
75890;SDS011;64571;47.512;19.054;2022-11-20T02:41:34;32.73;;;13.50;;
75890;SDS011;64571;47.512;19.054;2022-11-20T02:44:39;37.28;;;12.27;;
75890;SDS011;64571;47.512;19.054;2022-11-20T02:47:41;36.15;;;13.82;;
75890;SDS011;64571;47.512;19.054;2022-11-20T02:50:44;35.47;;;12.80;;
75890;SDS011;64571;47.512;19.054;2022-11-20T02:53:46;35.47;;;12.98;;
75890;SDS011;64571;47.512;19.054;2022-11-20T02:56:48;35.57;;;12.77;;
75890;SDS011;64571;47.512;19.054;2022-11-20T02:59:51;30.30;;;12.48;;
75890;SDS011;64571;47.512;19.054;2022-11-20T03:02:53;38.03;;;14.55;;
75890;SDS011;64571;47.512;19.054;2022-11-20T03:05:58;30.30;;;12.37;;
75890;SDS011;64571;47.512;19.054;2022-11-20T03:09:01;35.05;;;11.95;;
75890;SDS011;64571;47.512;19.054;2022-11-20T03:12:04;32.10;;;13.37;;
75890;SDS011;64571;47.512;19.054;2022-11-20T03:15:07;34.42;;;13.55;;
75890;SDS011;64571;47.512;19.054;2022-11-20T03:18:09;34.80;;;12.82;;
75890;SDS011;64571;47.512;19.054;2022-11-20T03:21:12;36.90;;;14.23;;
75890;SDS011;64571;47.512;19.054;2022-11-20T03:24:15;30.70;;;13.75;;
75890;SDS011;64571;47.512;19.054;2022-11-20T03:27:18;29.20;;;12.70;;
75890;SDS011;64571;47.512;19.054;2022-11-20T03:30:20;29.87;;;13.15;;
75890;SDS011;64571;47.512;19.054;2022-11-20T03:33:30;36.72;;;14.93;;
75890;SDS011;64571;47.512;19.054;2022-11-20T03:36:32;33.55;;;14.07;;
75890;SDS011;64571;47.512;19.054;2022-11-20T03:39:35;34.47;;;13.82;;
75890;SDS011;64571;47.512;19.054;2022-11-20T03:42:38;30.10;;;11.97;;
75890;SDS011;64571;47.512;19.054;2022-11-20T03:45:49;35.75;;;14.25;;
75890;SDS011;64571;47.512;19.054;2022-11-20T03:48:52;31.33;;;12.73;;
75890;SDS011;64571;47.512;19.054;2022-11-20T03:51:54;31.87;;;12.77;;
75890;SDS011;64571;47.512;19.054;2022-11-20T03:54:57;31.75;;;12.30;;
75890;SDS011;64571;47.512;19.054;2022-11-20T03:57:59;30.50;;;12.07;;
75890;SDS011;64571;47.512;19.054;2022-11-20T04:01:12;32.10;;;12.05;;
75890;SDS011;64571;47.512;19.054;2022-11-20T04:04:19;35.85;;;13.20;;
75890;SDS011;64571;47.512;19.054;2022-11-20T04:07:21;28.45;;;11.95;;
75890;SDS011;64571;47.512;19.054;2022-11-20T04:10:24;33.03;;;12.93;;
75890;SDS011;64571;47.512;19.054;2022-11-20T04:13:26;34.17;;;12.87;;
75890;SDS011;64571;47.512;19.054;2022-11-20T04:16:29;30.77;;;12.65;;
75890;SDS011;64571;47.512;19.054;2022-11-20T04:19:33;32.42;;;13.45;;
75890;SDS011;64571;47.512;19.054;2022-11-20T04:22:36;33.20;;;12.50;;
75890;SDS011;64571;47.512;19.054;2022-11-20T04:25:38;33.47;;;13.57;;
75890;SDS011;64571;47.512;19.054;2022-11-20T04:28:41;30.80;;;14.10;;
75890;SDS011;64571;47.512;19.054;2022-11-20T04:31:43;34.13;;;13.57;;
75890;SDS011;64571;47.512;19.054;2022-11-20T04:34:46;34.13;;;13.27;;
75890;SDS011;64571;47.512;19.054;2022-11-20T04:37:50;33.72;;;13.20;;
75890;SDS011;64571;47.512;19.054;2022-11-20T04:41:00;34.60;;;13.93;;
75890;SDS011;64571;47.512;19.054;2022-11-20T04:44:05;35.13;;;13.47;;
75890;SDS011;64571;47.512;19.054;2022-11-20T04:47:08;32.65;;;12.85;;
75890;SDS011;64571;47.512;19.054;2022-11-20T04:50:10;34.20;;;14.48;;
75890;SDS011;64571;47.512;19.054;2022-11-20T04:53:13;37.33;;;12.80;;
75890;SDS011;64571;47.512;19.054;2022-11-20T04:56:16;33.95;;;13.90;;
75890;SDS011;64571;47.512;19.054;2022-11-20T04:59:19;31.77;;;13.27;;
75890;SDS011;64571;47.512;19.054;2022-11-20T05:02:21;35.65;;;14.23;;
75890;SDS011;64571;47.512;19.054;2022-11-20T05:05:24;34.50;;;13.38;;
75890;SDS011;64571;47.512;19.054;2022-11-20T05:08:27;34.05;;;12.98;;
75890;SDS011;64571;47.512;19.054;2022-11-20T05:11:31;35.03;;;13.23;;
75890;SDS011;64571;47.512;19.054;2022-11-20T05:14:34;29.37;;;12.30;;
75890;SDS011;64571;47.512;19.054;2022-11-20T05:17:37;35.60;;;13.75;;
75890;SDS011;64571;47.512;19.054;2022-11-20T05:20:39;35.72;;;13.90;;
75890;SDS011;64571;47.512;19.054;2022-11-20T05:23:42;34.17;;;13.32;;
75890;SDS011;64571;47.512;19.054;2022-11-20T05:26:45;36.30;;;13.82;;
75890;SDS011;64571;47.512;19.054;2022-11-20T05:29:48;33.77;;;12.93;;
75890;SDS011;64571;47.512;19.054;2022-11-20T05:32:50;37.00;;;13.88;;
75890;SDS011;64571;47.512;19.054;2022-11-20T05:35:52;31.25;;;12.32;;
75890;SDS011;64571;47.512;19.054;2022-11-20T05:38:55;33.30;;;13.55;;
75890;SDS011;64571;47.512;19.054;2022-11-20T05:42:02;32.75;;;12.45;;
75890;SDS011;64571;47.512;19.054;2022-11-20T05:45:23;35.70;;;14.50;;
75890;SDS011;64571;47.512;19.054;2022-11-20T05:48:26;37.92;;;13.50;;
75890;SDS011;64571;47.512;19.054;2022-11-20T05:51:28;30.52;;;12.02;;
75890;SDS011;64571;47.512;19.054;2022-11-20T05:54:31;31.50;;;13.85;;
75890;SDS011;64571;47.512;19.054;2022-11-20T05:57:34;28.45;;;11.25;;
75890;SDS011;64571;47.512;19.054;2022-11-20T06:00:36;30.53;;;12.13;;
75890;SDS011;64571;47.512;19.054;2022-11-20T06:03:40;31.10;;;12.45;;
75890;SDS011;64571;47.512;19.054;2022-11-20T06:06:44;32.15;;;11.77;;
75890;SDS011;64571;47.512;19.054;2022-11-20T06:09:46;33.40;;;12.30;;
75890;SDS011;64571;47.512;19.054;2022-11-20T06:12:49;30.73;;;12.07;;
75890;SDS011;64571;47.512;19.054;2022-11-20T06:15:52;31.37;;;12.00;;
75890;SDS011;64571;47.512;19.054;2022-11-20T06:18:55;33.65;;;12.55;;
75890;SDS011;64571;47.512;19.054;2022-11-20T06:21:58;28.33;;;11.02;;
75890;SDS011;64571;47.512;19.054;2022-11-20T06:25:00;31.95;;;12.18;;
75890;SDS011;64571;47.512;19.054;2022-11-20T06:28:03;37.78;;;11.57;;
75890;SDS011;64571;47.512;19.054;2022-11-20T06:31:05;34.80;;;13.73;;
75890;SDS011;64571;47.512;19.054;2022-11-20T06:34:08;30.35;;;11.10;;
75890;SDS011;64571;47.512;19.054;2022-11-20T06:37:11;31.98;;;12.27;;
75890;SDS011;64571;47.512;19.054;2022-11-20T06:40:13;30.73;;;11.23;;
75890;SDS011;64571;47.512;19.054;2022-11-20T06:43:18;31.40;;;11.32;;
75890;SDS011;64571;47.512;19.054;2022-11-20T06:46:22;26.60;;;11.20;;
75890;SDS011;64571;47.512;19.054;2022-11-20T06:49:24;27.20;;;10.88;;
75890;SDS011;64571;47.512;19.054;2022-11-20T06:52:27;27.35;;;11.12;;
75890;SDS011;64571;47.512;19.054;2022-11-20T06:55:30;33.80;;;11.65;;
75890;SDS011;64571;47.512;19.054;2022-11-20T06:58:34;29.00;;;10.73;;
75890;SDS011;64571;47.512;19.054;2022-11-20T07:01:37;25.03;;;10.33;;
75890;SDS011;64571;47.512;19.054;2022-11-20T07:04:39;28.27;;;12.10;;
75890;SDS011;64571;47.512;19.054;2022-11-20T07:07:42;25.12;;;10.95;;
75890;SDS011;64571;47.512;19.054;2022-11-20T07:10:44;32.70;;;11.18;;
75890;SDS011;64571;47.512;19.054;2022-11-20T07:13:46;26.73;;;11.38;;
75890;SDS011;64571;47.512;19.054;2022-11-20T07:16:49;28.07;;;10.50;;
75890;SDS011;64571;47.512;19.054;2022-11-20T07:19:51;28.30;;;11.55;;
75890;SDS011;64571;47.512;19.054;2022-11-20T07:22:54;29.12;;;11.63;;
75890;SDS011;64571;47.512;19.054;2022-11-20T07:26:07;31.37;;;12.35;;
75890;SDS011;64571;47.512;19.054;2022-11-20T07:29:11;27.00;;;11.73;;
75890;SDS011;64571;47.512;19.054;2022-11-20T07:32:13;23.37;;;9.87;;
75890;SDS011;64571;47.512;19.054;2022-11-20T07:35:16;28.05;;;11.02;;
75890;SDS011;64571;47.512;19.054;2022-11-20T07:38:18;29.75;;;12.25;;
75890;SDS011;64571;47.512;19.054;2022-11-20T07:41:20;32.95;;;12.95;;
75890;SDS011;64571;47.512;19.054;2022-11-20T07:44:23;28.50;;;11.60;;
75890;SDS011;64571;47.512;19.054;2022-11-20T07:47:25;30.33;;;12.50;;
75890;SDS011;64571;47.512;19.054;2022-11-20T07:50:28;29.48;;;12.65;;
75890;SDS011;64571;47.512;19.054;2022-11-20T07:53:30;31.40;;;13.05;;
75890;SDS011;64571;47.512;19.054;2022-11-20T07:56:32;30.60;;;12.80;;
75890;SDS011;64571;47.512;19.054;2022-11-20T07:59:35;30.95;;;13.43;;
75890;SDS011;64571;47.512;19.054;2022-11-20T08:02:38;27.73;;;12.00;;
75890;SDS011;64571;47.512;19.054;2022-11-20T08:05:43;29.55;;;12.00;;
75890;SDS011;64571;47.512;19.054;2022-11-20T08:08:46;27.70;;;11.68;;
75890;SDS011;64571;47.512;19.054;2022-11-20T08:11:48;28.70;;;11.12;;
75890;SDS011;64571;47.512;19.054;2022-11-20T08:15:09;28.42;;;12.18;;
75890;SDS011;64571;47.512;19.054;2022-11-20T08:18:14;32.17;;;12.90;;
75890;SDS011;64571;47.512;19.054;2022-11-20T08:21:32;25.65;;;11.27;;
75890;SDS011;64571;47.512;19.054;2022-11-20T08:24:39;29.33;;;12.50;;
75890;SDS011;64571;47.512;19.054;2022-11-20T08:27:41;29.05;;;12.57;;
75890;SDS011;64571;47.512;19.054;2022-11-20T08:30:44;29.73;;;11.70;;
75890;SDS011;64571;47.512;19.054;2022-11-20T08:33:47;30.40;;;12.17;;
75890;SDS011;64571;47.512;19.054;2022-11-20T08:36:50;27.23;;;12.45;;
75890;SDS011;64571;47.512;19.054;2022-11-20T08:39:52;29.58;;;11.95;;
75890;SDS011;64571;47.512;19.054;2022-11-20T08:42:55;29.02;;;11.93;;
75890;SDS011;64571;47.512;19.054;2022-11-20T08:45:58;29.05;;;11.80;;
75890;SDS011;64571;47.512;19.054;2022-11-20T08:49:00;29.13;;;12.63;;
75890;SDS011;64571;47.512;19.054;2022-11-20T08:52:03;27.52;;;12.07;;
75890;SDS011;64571;47.512;19.054;2022-11-20T08:55:07;30.42;;;13.07;;
75890;SDS011;64571;47.512;19.054;2022-11-20T08:58:09;31.73;;;13.73;;
75890;SDS011;64571;47.512;19.054;2022-11-20T09:01:12;27.70;;;12.18;;
75890;SDS011;64571;47.512;19.054;2022-11-20T09:04:14;27.87;;;12.83;;
75890;SDS011;64571;47.512;19.054;2022-11-20T09:07:17;27.92;;;11.80;;
75890;SDS011;64571;47.512;19.054;2022-11-20T09:10:20;28.15;;;12.15;;
75890;SDS011;64571;47.512;19.054;2022-11-20T09:13:26;26.50;;;11.35;;
75890;SDS011;64571;47.512;19.054;2022-11-20T09:16:30;26.23;;;11.85;;
75890;SDS011;64571;47.512;19.054;2022-11-20T09:19:32;28.77;;;11.63;;
75890;SDS011;64571;47.512;19.054;2022-11-20T09:22:41;28.33;;;12.48;;
75890;SDS011;64571;47.512;19.054;2022-11-20T09:25:44;30.23;;;13.07;;
75890;SDS011;64571;47.512;19.054;2022-11-20T09:28:46;33.25;;;13.55;;
75890;SDS011;64571;47.512;19.054;2022-11-20T09:31:49;29.98;;;12.80;;
75890;SDS011;64571;47.512;19.054;2022-11-20T09:34:51;32.83;;;14.40;;
75890;SDS011;64571;47.512;19.054;2022-11-20T09:37:53;30.90;;;12.65;;
75890;SDS011;64571;47.512;19.054;2022-11-20T09:40:57;33.75;;;12.73;;
75890;SDS011;64571;47.512;19.054;2022-11-20T09:44:10;27.55;;;12.32;;
75890;SDS011;64571;47.512;19.054;2022-11-20T09:57:11;32.95;;;13.70;;
75890;SDS011;64571;47.512;19.054;2022-11-20T10:00:19;29.67;;;12.98;;
75890;SDS011;64571;47.512;19.054;2022-11-20T10:03:28;31.35;;;14.52;;
75890;SDS011;64571;47.512;19.054;2022-11-20T10:10:40;34.20;;;14.38;;
75890;SDS011;64571;47.512;19.054;2022-11-20T10:17:46;30.58;;;14.23;;
75890;SDS011;64571;47.512;19.054;2022-11-20T10:24:44;32.10;;;13.73;;
75890;SDS011;64571;47.512;19.054;2022-11-20T10:31:08;33.38;;;15.60;;
75890;SDS011;64571;47.512;19.054;2022-11-20T10:34:18;36.15;;;16.55;;
75890;SDS011;64571;47.512;19.054;2022-11-20T10:37:41;34.25;;;17.15;;
75890;SDS011;64571;47.512;19.054;2022-11-20T10:40:48;33.63;;;15.77;;
75890;SDS011;64571;47.512;19.054;2022-11-20T10:47:43;31.73;;;14.50;;
75890;SDS011;64571;47.512;19.054;2022-11-20T10:50:49;35.78;;;15.27;;
75890;SDS011;64571;47.512;19.054;2022-11-20T11:01:20;30.73;;;13.35;;
75890;SDS011;64571;47.512;19.054;2022-11-20T11:07:33;30.45;;;13.70;;
75890;SDS011;64571;47.512;19.054;2022-11-20T11:10:39;31.17;;;13.62;;
75890;SDS011;64571;47.512;19.054;2022-11-20T11:13:52;32.60;;;15.43;;
75890;SDS011;64571;47.512;19.054;2022-11-20T11:16:55;28.67;;;13.50;;
75890;SDS011;64571;47.512;19.054;2022-11-20T11:20:19;30.85;;;13.40;;
75890;SDS011;64571;47.512;19.054;2022-11-20T11:23:28;31.80;;;13.52;;
75890;SDS011;64571;47.512;19.054;2022-11-20T11:26:34;29.30;;;11.85;;
75890;SDS011;64571;47.512;19.054;2022-11-20T11:29:36;27.80;;;12.50;;
75890;SDS011;64571;47.512;19.054;2022-11-20T11:32:39;26.92;;;12.68;;
75890;SDS011;64571;47.512;19.054;2022-11-20T11:35:45;28.98;;;13.30;;
75890;SDS011;64571;47.512;19.054;2022-11-20T11:38:52;29.95;;;12.18;;
75890;SDS011;64571;47.512;19.054;2022-11-20T11:41:57;26.17;;;11.75;;
75890;SDS011;64571;47.512;19.054;2022-11-20T11:45:00;29.53;;;12.10;;
75890;SDS011;64571;47.512;19.054;2022-11-20T11:48:08;30.27;;;12.82;;
75890;SDS011;64571;47.512;19.054;2022-11-20T11:51:11;30.42;;;12.63;;
75890;SDS011;64571;47.512;19.054;2022-11-20T11:54:15;30.95;;;13.77;;
75890;SDS011;64571;47.512;19.054;2022-11-20T12:04:46;23.85;;;10.30;;
75890;SDS011;64571;47.512;19.054;2022-11-20T12:11:18;22.98;;;10.77;;
75890;SDS011;64571;47.512;19.054;2022-11-20T12:17:39;26.70;;;11.80;;
75890;SDS011;64571;47.512;19.054;2022-11-20T12:20:43;24.90;;;11.55;;
75890;SDS011;64571;47.512;19.054;2022-11-20T12:24:20;29.50;;;11.93;;
75890;SDS011;64571;47.512;19.054;2022-11-20T12:44:43;27.58;;;10.63;;
75890;SDS011;64571;47.512;19.054;2022-11-20T12:51:30;30.37;;;13.47;;
75890;SDS011;64571;47.512;19.054;2022-11-20T12:55:41;24.48;;;10.50;;
75890;SDS011;64571;47.512;19.054;2022-11-20T12:58:12;27.77;;;11.98;;
75890;SDS011;64571;47.512;19.054;2022-11-20T13:01:25;22.37;;;9.45;;
75890;SDS011;64571;47.512;19.054;2022-11-20T13:07:51;26.90;;;11.60;;
75890;SDS011;64571;47.512;19.054;2022-11-20T13:17:55;28.00;;;10.95;;
75890;SDS011;64571;47.512;19.054;2022-11-20T13:21:01;28.85;;;11.38;;
75890;SDS011;64571;47.512;19.054;2022-11-20T13:24:04;27.70;;;11.90;;
75890;SDS011;64571;47.512;19.054;2022-11-20T13:27:22;27.42;;;12.35;;
75890;SDS011;64571;47.512;19.054;2022-11-20T13:30:26;29.65;;;13.15;;
75890;SDS011;64571;47.512;19.054;2022-11-20T13:36:48;27.45;;;12.63;;
75890;SDS011;64571;47.512;19.054;2022-11-20T13:39:52;31.43;;;12.40;;
75890;SDS011;64571;47.512;19.054;2022-11-20T13:43:10;32.63;;;12.85;;
75890;SDS011;64571;47.512;19.054;2022-11-20T13:46:20;30.27;;;12.43;;
75890;SDS011;64571;47.512;19.054;2022-11-20T13:49:27;32.00;;;14.20;;
75890;SDS011;64571;47.512;19.054;2022-11-20T14:02:40;33.35;;;14.00;;
75890;SDS011;64571;47.512;19.054;2022-11-20T14:06:04;32.90;;;13.25;;
75890;SDS011;64571;47.512;19.054;2022-11-20T14:09:25;34.58;;;14.70;;
75890;SDS011;64571;47.512;19.054;2022-11-20T14:12:33;35.03;;;15.03;;
75890;SDS011;64571;47.512;19.054;2022-11-20T14:15:36;29.52;;;14.38;;
75890;SDS011;64571;47.512;19.054;2022-11-20T14:18:46;31.40;;;13.50;;
75890;SDS011;64571;47.512;19.054;2022-11-20T14:21:49;34.97;;;14.52;;
75890;SDS011;64571;47.512;19.054;2022-11-20T14:28:24;30.53;;;13.03;;
75890;SDS011;64571;47.512;19.054;2022-11-20T14:31:29;35.88;;;14.90;;
75890;SDS011;64571;47.512;19.054;2022-11-20T14:34:32;31.37;;;13.05;;
75890;SDS011;64571;47.512;19.054;2022-11-20T14:37:40;32.42;;;14.73;;
75890;SDS011;64571;47.512;19.054;2022-11-20T14:40:43;34.55;;;13.68;;
75890;SDS011;64571;47.512;19.054;2022-11-20T14:43:55;32.57;;;13.87;;
75890;SDS011;64571;47.512;19.054;2022-11-20T14:47:00;31.70;;;13.05;;
75890;SDS011;64571;47.512;19.054;2022-11-20T14:50:07;33.83;;;14.30;;
75890;SDS011;64571;47.512;19.054;2022-11-20T14:53:22;31.95;;;13.07;;
75890;SDS011;64571;47.512;19.054;2022-11-20T14:56:27;33.95;;;14.35;;
75890;SDS011;64571;47.512;19.054;2022-11-20T14:59:31;32.63;;;14.03;;
75890;SDS011;64571;47.512;19.054;2022-11-20T15:02:39;33.58;;;14.27;;
75890;SDS011;64571;47.512;19.054;2022-11-20T15:05:48;34.30;;;14.50;;
75890;SDS011;64571;47.512;19.054;2022-11-20T15:08:51;29.80;;;13.38;;
75890;SDS011;64571;47.512;19.054;2022-11-20T15:11:55;33.97;;;13.45;;
75890;SDS011;64571;47.512;19.054;2022-11-20T15:15:00;30.23;;;13.13;;
75890;SDS011;64571;47.512;19.054;2022-11-20T15:18:04;33.50;;;13.18;;
75890;SDS011;64571;47.512;19.054;2022-11-20T15:21:11;32.80;;;13.20;;
75890;SDS011;64571;47.512;19.054;2022-11-20T15:24:15;29.50;;;13.38;;
75890;SDS011;64571;47.512;19.054;2022-11-20T15:27:18;30.52;;;12.60;;
75890;SDS011;64571;47.512;19.054;2022-11-20T15:30:20;26.57;;;11.27;;
75890;SDS011;64571;47.512;19.054;2022-11-20T15:33:23;32.47;;;13.75;;
75890;SDS011;64571;47.512;19.054;2022-11-20T15:36:26;32.63;;;12.82;;
75890;SDS011;64571;47.512;19.054;2022-11-20T15:39:28;30.00;;;13.40;;
75890;SDS011;64571;47.512;19.054;2022-11-20T15:42:31;31.60;;;12.70;;
75890;SDS011;64571;47.512;19.054;2022-11-20T15:45:37;31.97;;;14.33;;
75890;SDS011;64571;47.512;19.054;2022-11-20T15:48:42;32.80;;;12.68;;
75890;SDS011;64571;47.512;19.054;2022-11-20T15:51:49;31.02;;;13.60;;
75890;SDS011;64571;47.512;19.054;2022-11-20T15:54:52;29.92;;;13.40;;
75890;SDS011;64571;47.512;19.054;2022-11-20T15:57:55;32.45;;;12.65;;
75890;SDS011;64571;47.512;19.054;2022-11-20T16:00:57;33.93;;;13.50;;
75890;SDS011;64571;47.512;19.054;2022-11-20T16:04:00;31.30;;;13.60;;
75890;SDS011;64571;47.512;19.054;2022-11-20T16:07:03;33.70;;;14.45;;
75890;SDS011;64571;47.512;19.054;2022-11-20T16:10:06;35.20;;;15.15;;
75890;SDS011;64571;47.512;19.054;2022-11-20T16:13:12;33.22;;;13.57;;
75890;SDS011;64571;47.512;19.054;2022-11-20T16:16:35;32.27;;;13.13;;
75890;SDS011;64571;47.512;19.054;2022-11-20T16:19:39;33.63;;;13.55;;
75890;SDS011;64571;47.512;19.054;2022-11-20T16:22:42;31.60;;;14.57;;
75890;SDS011;64571;47.512;19.054;2022-11-20T16:25:44;36.78;;;14.98;;
75890;SDS011;64571;47.512;19.054;2022-11-20T16:28:47;40.38;;;15.70;;
75890;SDS011;64571;47.512;19.054;2022-11-20T16:31:49;41.50;;;14.63;;
75890;SDS011;64571;47.512;19.054;2022-11-20T16:34:52;35.55;;;14.68;;
75890;SDS011;64571;47.512;19.054;2022-11-20T16:37:54;35.97;;;15.27;;
75890;SDS011;64571;47.512;19.054;2022-11-20T16:41:01;36.92;;;15.65;;
75890;SDS011;64571;47.512;19.054;2022-11-20T16:44:09;42.13;;;15.25;;
75890;SDS011;64571;47.512;19.054;2022-11-20T16:47:12;33.67;;;15.47;;
75890;SDS011;64571;47.512;19.054;2022-11-20T16:50:15;36.05;;;14.95;;
75890;SDS011;64571;47.512;19.054;2022-11-20T16:53:18;40.50;;;16.40;;
75890;SDS011;64571;47.512;19.054;2022-11-20T16:56:23;34.50;;;15.93;;
75890;SDS011;64571;47.512;19.054;2022-11-20T16:59:27;40.58;;;16.90;;
75890;SDS011;64571;47.512;19.054;2022-11-20T17:02:29;37.30;;;16.37;;
75890;SDS011;64571;47.512;19.054;2022-11-20T17:05:33;34.95;;;14.87;;
75890;SDS011;64571;47.512;19.054;2022-11-20T17:08:36;38.28;;;14.77;;
75890;SDS011;64571;47.512;19.054;2022-11-20T17:11:38;33.33;;;14.65;;
75890;SDS011;64571;47.512;19.054;2022-11-20T17:14:41;35.88;;;14.52;;
75890;SDS011;64571;47.512;19.054;2022-11-20T17:17:44;37.43;;;16.27;;
75890;SDS011;64571;47.512;19.054;2022-11-20T17:20:50;35.83;;;15.50;;
75890;SDS011;64571;47.512;19.054;2022-11-20T17:23:54;32.85;;;14.07;;
75890;SDS011;64571;47.512;19.054;2022-11-20T17:26:56;31.60;;;13.02;;
75890;SDS011;64571;47.512;19.054;2022-11-20T17:29:59;32.17;;;12.88;;
75890;SDS011;64571;47.512;19.054;2022-11-20T17:33:01;32.70;;;13.40;;
75890;SDS011;64571;47.512;19.054;2022-11-20T17:36:04;34.10;;;14.15;;
75890;SDS011;64571;47.512;19.054;2022-11-20T17:39:08;36.85;;;14.52;;
75890;SDS011;64571;47.512;19.054;2022-11-20T17:42:11;36.00;;;15.45;;
75890;SDS011;64571;47.512;19.054;2022-11-20T17:45:28;35.40;;;14.15;;
75890;SDS011;64571;47.512;19.054;2022-11-20T17:48:33;34.70;;;15.00;;
75890;SDS011;64571;47.512;19.054;2022-11-20T17:51:36;38.08;;;15.10;;
75890;SDS011;64571;47.512;19.054;2022-11-20T17:54:38;31.30;;;13.88;;
75890;SDS011;64571;47.512;19.054;2022-11-20T17:57:40;33.70;;;14.43;;
75890;SDS011;64571;47.512;19.054;2022-11-20T18:01:03;35.55;;;14.80;;
75890;SDS011;64571;47.512;19.054;2022-11-20T18:04:07;34.13;;;15.20;;
75890;SDS011;64571;47.512;19.054;2022-11-20T18:07:11;35.22;;;15.15;;
75890;SDS011;64571;47.512;19.054;2022-11-20T18:10:13;33.15;;;14.50;;
75890;SDS011;64571;47.512;19.054;2022-11-20T18:13:16;40.42;;;15.45;;
75890;SDS011;64571;47.512;19.054;2022-11-20T18:16:18;32.92;;;13.60;;
75890;SDS011;64571;47.512;19.054;2022-11-20T18:19:23;37.10;;;15.23;;
75890;SDS011;64571;47.512;19.054;2022-11-20T18:22:33;37.20;;;14.65;;
75890;SDS011;64571;47.512;19.054;2022-11-20T18:25:36;38.45;;;16.55;;
75890;SDS011;64571;47.512;19.054;2022-11-20T18:28:38;35.38;;;15.27;;
75890;SDS011;64571;47.512;19.054;2022-11-20T18:31:41;40.67;;;17.10;;
75890;SDS011;64571;47.512;19.054;2022-11-20T18:34:43;31.63;;;14.37;;
75890;SDS011;64571;47.512;19.054;2022-11-20T18:37:46;37.53;;;15.20;;
75890;SDS011;64571;47.512;19.054;2022-11-20T18:40:48;36.35;;;15.85;;
75890;SDS011;64571;47.512;19.054;2022-11-20T18:43:51;34.58;;;15.20;;
75890;SDS011;64571;47.512;19.054;2022-11-20T18:47:14;34.20;;;14.20;;
75890;SDS011;64571;47.512;19.054;2022-11-20T18:50:18;33.77;;;14.17;;
75890;SDS011;64571;47.512;19.054;2022-11-20T18:53:21;34.80;;;15.57;;
75890;SDS011;64571;47.512;19.054;2022-11-20T18:56:23;34.47;;;15.32;;
75890;SDS011;64571;47.512;19.054;2022-11-20T18:59:25;35.97;;;15.43;;
75890;SDS011;64571;47.512;19.054;2022-11-20T19:02:29;36.72;;;15.05;;
75890;SDS011;64571;47.512;19.054;2022-11-20T19:05:31;34.00;;;15.27;;
75890;SDS011;64571;47.512;19.054;2022-11-20T19:08:37;36.97;;;15.00;;
75890;SDS011;64571;47.512;19.054;2022-11-20T19:11:39;42.80;;;15.10;;
75890;SDS011;64571;47.512;19.054;2022-11-20T19:14:42;38.45;;;16.37;;
75890;SDS011;64571;47.512;19.054;2022-11-20T19:17:45;35.92;;;15.52;;
75890;SDS011;64571;47.512;19.054;2022-11-20T19:20:47;35.60;;;15.97;;
75890;SDS011;64571;47.512;19.054;2022-11-20T19:23:51;37.30;;;17.02;;
75890;SDS011;64571;47.512;19.054;2022-11-20T19:26:55;36.53;;;16.08;;
75890;SDS011;64571;47.512;19.054;2022-11-20T19:29:57;40.97;;;16.70;;
75890;SDS011;64571;47.512;19.054;2022-11-20T19:33:04;43.65;;;16.30;;
75890;SDS011;64571;47.512;19.054;2022-11-20T19:36:10;40.13;;;16.60;;